Time;durP1;ratioP1;P1;durP2;ratioP2;P2;SDS_P1;SDS_P2;PMS_P1;PMS_P2;Temp;Humidity;BMP_temperature;BMP_pressure;BME280_temperature;BME280_humidity;BME280_pressure;Samples;Min_cycle;Max_cycle;Signal;HPM_P1;HPM_P2
2023/03/09 00:01:18;;;;;;;25.33;15.82;;;;;;;;;;5050670;28;20198;-70
2023/03/09 00:03:45;;;;;;;28.33;15.23;;;;;;;;;;5051174;28;20201;-70
2023/03/09 00:06:13;;;;;;;30.15;16.10;;;;;;;;;;5049003;28;20696;-71
2023/03/09 00:08:40;;;;;;;30.15;16.80;;;;;;;;;;5046748;28;20215;-71
2023/03/09 00:11:07;;;;;;;27.48;16.58;;;;;;;;;;5035183;28;20195;-71
2023/03/09 00:13:35;;;;;;;42.50;16.85;;;;;;;;;;5043864;28;20277;-72
2023/03/09 00:16:08;;;;;;;38.58;19.73;;;;;;;;;;5030881;28;20203;-71
2023/03/09 00:18:37;;;;;;;44.38;23.33;;;;;;;;;;5034731;28;20595;-70
2023/03/09 00:21:04;;;;;;;34.63;19.15;;;;;;;;;;5051524;28;20207;-70
2023/03/09 00:23:31;;;;;;;24.52;15.52;;;;;;;;;;5049915;28;20486;-70
2023/03/09 00:26:02;;;;;;;23.83;14.88;;;;;;;;;;5032099;28;20202;-71
2023/03/09 00:28:29;;;;;;;27.17;15.07;;;;;;;;;;5031443;28;20261;-71
2023/03/09 00:31:00;;;;;;;28.90;15.70;;;;;;;;;;5031373;28;20199;-71
2023/03/09 00:33:27;;;;;;;31.75;15.75;;;;;;;;;;5030998;28;20206;-71
2023/03/09 00:35:56;;;;;;;24.92;15.30;;;;;;;;;;5031353;28;20211;-71
2023/03/09 00:38:23;;;;;;;24.10;15.45;;;;;;;;;;5031289;28;20199;-70
2023/03/09 00:40:50;;;;;;;28.45;15.85;;;;;;;;;;5031807;28;20703;-70
2023/03/09 00:43:17;;;;;;;34.47;17.20;;;;;;;;;;5040243;28;20195;-70
2023/03/09 00:45:44;;;;;;;32.97;16.40;;;;;;;;;;5035235;28;20207;-71
2023/03/09 00:48:12;;;;;;;32.95;16.45;;;;;;;;;;5034052;28;20203;-70
2023/03/09 00:50:39;;;;;;;33.67;17.90;;;;;;;;;;5034976;28;20199;-70
2023/03/09 00:53:07;;;;;;;29.85;17.58;;;;;;;;;;5038339;28;20648;-71
2023/03/09 00:55:34;;;;;;;34.40;18.13;;;;;;;;;;5054659;28;20625;-71
2023/03/09 00:58:01;;;;;;;28.05;17.83;;;;;;;;;;5052829;28;20566;-71
2023/03/09 01:00:29;;;;;;;30.60;17.10;;;;;;;;;;5045141;28;20234;-71
2023/03/09 01:02:56;;;;;;;31.77;17.05;;;;;;;;;;5034600;28;20201;-70
2023/03/09 01:05:23;;;;;;;32.83;17.25;;;;;;;;;;5035503;28;20203;-71
2023/03/09 01:07:50;;;;;;;33.08;16.45;;;;;;;;;;5053620;28;20199;-71
2023/03/09 01:10:19;;;;;;;32.15;17.92;;;;;;;;;;5054178;28;20591;-70
2023/03/09 01:12:46;;;;;;;29.92;16.65;;;;;;;;;;5052423;28;20198;-70
2023/03/09 01:15:13;;;;;;;31.58;16.48;;;;;;;;;;5052078;28;20198;-70
2023/03/09 01:17:41;;;;;;;37.22;17.08;;;;;;;;;;5054431;28;20229;-70
2023/03/09 01:20:11;;;;;;;28.35;16.95;;;;;;;;;;5053734;28;20242;-70
2023/03/09 01:22:38;;;;;;;34.90;18.63;;;;;;;;;;5050979;28;20202;-71
2023/03/09 01:25:06;;;;;;;39.35;17.85;;;;;;;;;;5041075;28;20206;-71
2023/03/09 01:27:34;;;;;;;28.60;17.48;;;;;;;;;;5049162;28;20198;-71
2023/03/09 01:30:01;;;;;;;32.92;15.23;;;;;;;;;;5048685;28;20218;-71
2023/03/09 01:32:28;;;;;;;36.60;17.42;;;;;;;;;;5033782;28;20203;-70
2023/03/09 01:34:56;;;;;;;31.25;17.40;;;;;;;;;;5033851;28;20203;-70
2023/03/09 01:37:23;;;;;;;35.55;17.83;;;;;;;;;;5033292;28;20676;-70
2023/03/09 01:39:50;;;;;;;41.25;18.88;;;;;;;;;;5033853;28;20245;-70
2023/03/09 01:42:17;;;;;;;28.60;17.15;;;;;;;;;;5032554;28;20195;-71
2023/03/09 01:44:45;;;;;;;31.27;17.30;;;;;;;;;;5032730;28;20307;-72
2023/03/09 01:47:12;;;;;;;37.80;17.55;;;;;;;;;;5031926;28;20199;-71
2023/03/09 01:49:42;;;;;;;32.15;17.95;;;;;;;;;;5033778;28;20219;-70
2023/03/09 01:52:13;;;;;;;31.02;17.30;;;;;;;;;;5033322;28;20207;-70
2023/03/09 01:54:43;;;;;;;30.20;15.38;;;;;;;;;;5033370;28;20226;-71
2023/03/09 01:57:12;;;;;;;43.20;18.15;;;;;;;;;;5033727;28;20692;-71
2023/03/09 01:59:40;;;;;;;41.35;18.05;;;;;;;;;;5033629;28;20230;-70
2023/03/09 02:02:08;;;;;;;29.98;16.33;;;;;;;;;;5038238;28;20209;-71
2023/03/09 02:04:38;;;;;;;36.05;18.08;;;;;;;;;;5053758;28;20222;-70
2023/03/09 02:07:06;;;;;;;30.50;18.73;;;;;;;;;;5051358;28;20199;-70
2023/03/09 02:09:38;;;;;;;36.22;18.60;;;;;;;;;;5045950;28;20238;-70
2023/03/09 02:12:06;;;;;;;37.50;18.80;;;;;;;;;;5033340;28;20422;-71
2023/03/09 02:14:33;;;;;;;28.13;16.23;;;;;;;;;;5033442;28;20200;-70
2023/03/09 02:17:00;;;;;;;35.63;16.67;;;;;;;;;;5032303;28;20200;-71
2023/03/09 02:19:34;;;;;;;35.65;16.27;;;;;;;;;;5038228;28;20592;-71
2023/03/09 02:22:01;;;;;;;35.38;16.20;;;;;;;;;;5033182;28;20226;-70
2023/03/09 02:24:34;;;;;;;34.08;17.00;;;;;;;;;;5039519;28;20591;-70
2023/03/09 02:27:04;;;;;;;44.58;20.63;;;;;;;;;;5039687;28;20195;-71
2023/03/09 02:29:32;;;;;;;48.67;20.70;;;;;;;;;;5031900;28;20226;-71
2023/03/09 02:31:59;;;;;;;42.38;19.52;;;;;;;;;;5041412;28;20615;-71
2023/03/09 02:34:26;;;;;;;37.60;17.65;;;;;;;;;;5052763;28;20611;-72
2023/03/09 02:36:54;;;;;;;35.40;17.88;;;;;;;;;;5037244;28;20202;-70
2023/03/09 02:39:25;;;;;;;32.97;18.10;;;;;;;;;;5032732;28;20224;-71
2023/03/09 02:41:52;;;;;;;34.90;17.65;;;;;;;;;;5031562;28;20548;-70
2023/03/09 02:44:19;;;;;;;43.92;17.92;;;;;;;;;;5032635;28;20212;-71
2023/03/09 02:46:48;;;;;;;37.80;16.50;;;;;;;;;;5031557;28;20199;-70
2023/03/09 02:49:15;;;;;;;37.95;17.10;;;;;;;;;;5051374;28;20482;-70
2023/03/09 02:51:42;;;;;;;33.88;15.50;;;;;;;;;;5030980;28;20230;-70
2023/03/09 02:54:09;;;;;;;38.35;17.10;;;;;;;;;;5032667;28;20200;-72
2023/03/09 02:56:36;;;;;;;33.72;18.02;;;;;;;;;;5032668;28;20222;-70
2023/03/09 02:59:03;;;;;;;40.92;16.15;;;;;;;;;;5032201;28;20724;-70
2023/03/09 03:01:31;;;;;;;43.97;17.63;;;;;;;;;;5041621;28;20206;-70
2023/03/09 03:03:59;;;;;;;56.33;20.27;;;;;;;;;;5036229;28;20202;-71
2023/03/09 03:06:26;;;;;;;41.17;17.38;;;;;;;;;;5031867;28;20199;-70
2023/03/09 03:08:53;;;;;;;58.75;21.35;;;;;;;;;;5032303;28;20727;-71
2023/03/09 03:11:20;;;;;;;53.42;20.80;;;;;;;;;;5032039;28;20199;-69
2023/03/09 03:13:47;;;;;;;41.83;18.95;;;;;;;;;;5032268;28;20578;-70
2023/03/09 03:16:14;;;;;;;63.20;19.65;;;;;;;;;;5032046;28;20593;-70
2023/03/09 03:18:42;;;;;;;77.65;24.02;;;;;;;;;;5032335;28;20306;-71
2023/03/09 03:21:10;;;;;;;55.60;21.55;;;;;;;;;;5031420;28;20218;-70
2023/03/09 03:23:37;;;;;;;65.53;21.48;;;;;;;;;;5051535;28;20209;-69
2023/03/09 03:26:08;;;;;;;59.85;21.85;;;;;;;;;;5049730;28;20210;-71
2023/03/09 03:28:35;;;;;;;78.47;23.17;;;;;;;;;;5035082;28;20586;-71
2023/03/09 03:31:02;;;;;;;67.70;21.38;;;;;;;;;;5031805;28;20195;-71
2023/03/09 03:33:29;;;;;;;60.15;20.30;;;;;;;;;;5045701;28;20203;-71
2023/03/09 03:35:57;;;;;;;67.63;18.60;;;;;;;;;;5052008;28;20205;-70
2023/03/09 03:38:25;;;;;;;63.88;21.65;;;;;;;;;;5050999;28;20229;-70
2023/03/09 03:40:52;;;;;;;58.60;18.42;;;;;;;;;;5048262;28;20245;-71
2023/03/09 03:43:19;;;;;;;68.28;18.38;;;;;;;;;;5051555;28;20202;-71
2023/03/09 03:45:46;;;;;;;91.88;21.35;;;;;;;;;;5049419;28;20199;-70
2023/03/09 03:48:13;;;;;;;68.25;19.95;;;;;;;;;;5051373;28;20198;-70
2023/03/09 03:50:40;;;;;;;90.45;20.83;;;;;;;;;;5051707;28;20206;-70
2023/03/09 03:53:08;;;;;;;55.28;18.95;;;;;;;;;;5048834;28;20202;-70
2023/03/09 03:55:36;;;;;;;81.18;19.58;;;;;;;;;;5049547;28;20568;-71
2023/03/09 03:58:04;;;;;;;71.38;21.55;;;;;;;;;;5051848;28;20202;-70
2023/03/09 04:00:31;;;;;;;79.93;22.40;;;;;;;;;;5050935;28;20233;-70
2023/03/09 04:02:58;;;;;;;77.50;21.40;;;;;;;;;;5050950;28;20194;-70
2023/03/09 04:05:26;;;;;;;63.42;21.27;;;;;;;;;;5051516;28;20199;-71
2023/03/09 04:07:53;;;;;;;61.97;19.75;;;;;;;;;;5051529;28;20202;-71
2023/03/09 04:10:23;;;;;;;78.82;19.17;;;;;;;;;;5040562;28;20226;-70
2023/03/09 04:12:51;;;;;;;79.35;18.95;;;;;;;;;;5042042;28;20388;-71
2023/03/09 04:15:18;;;;;;;111.65;24.88;;;;;;;;;;5051200;28;20206;-71
2023/03/09 04:17:47;;;;;;;100.80;24.90;;;;;;;;;;5030878;28;20290;-71
2023/03/09 04:20:14;;;;;;;87.30;21.40;;;;;;;;;;5035333;28;20290;-69
2023/03/09 04:22:41;;;;;;;73.03;19.70;;;;;;;;;;5035429;28;20210;-71
2023/03/09 04:25:09;;;;;;;75.85;20.80;;;;;;;;;;5034976;28;20487;-70
2023/03/09 04:27:36;;;;;;;74.80;21.05;;;;;;;;;;5034641;28;20199;-71
2023/03/09 04:30:05;;;;;;;96.78;23.88;;;;;;;;;;5035257;28;20735;-70
2023/03/09 04:32:32;;;;;;;59.83;19.42;;;;;;;;;;5034757;28;20673;-71
2023/03/09 04:34:59;;;;;;;106.72;24.80;;;;;;;;;;5035024;28;20206;-70
2023/03/09 04:37:26;;;;;;;90.13;23.48;;;;;;;;;;5035579;28;20203;-71
2023/03/09 04:39:53;;;;;;;65.25;17.85;;;;;;;;;;5034092;28;20239;-71
2023/03/09 04:42:20;;;;;;;87.03;17.17;;;;;;;;;;5034492;28;20199;-71
2023/03/09 04:44:47;;;;;;;106.15;22.02;;;;;;;;;;5034142;28;20204;-70
2023/03/09 04:47:16;;;;;;;98.10;20.98;;;;;;;;;;5033754;28;20195;-71
2023/03/09 04:49:43;;;;;;;52.72;16.30;;;;;;;;;;5035393;28;20583;-71
2023/03/09 04:52:10;;;;;;;96.57;20.38;;;;;;;;;;5033850;28;20199;-70
2023/03/09 04:54:39;;;;;;;96.78;20.10;;;;;;;;;;5035195;28;20207;-71
2023/03/09 04:57:06;;;;;;;78.82;18.50;;;;;;;;;;5034668;28;20202;-70
2023/03/09 04:59:33;;;;;;;62.85;15.38;;;;;;;;;;5050119;28;20221;-70
2023/03/09 05:02:00;;;;;;;89.80;23.42;;;;;;;;;;5054496;28;20210;-69
2023/03/09 05:04:29;;;;;;;54.90;16.83;;;;;;;;;;5054805;28;20199;-70
2023/03/09 05:06:56;;;;;;;90.38;24.13;;;;;;;;;;5054511;28;20210;-71
2023/03/09 05:09:23;;;;;;;78.55;19.92;;;;;;;;;;5044055;28;20219;-70
2023/03/09 05:11:51;;;;;;;113.50;22.45;;;;;;;;;;5034409;28;20569;-69
2023/03/09 05:14:19;;;;;;;58.35;16.10;;;;;;;;;;5041276;28;20191;-71
2023/03/09 05:16:46;;;;;;;85.38;19.30;;;;;;;;;;5054716;28;20206;-69
2023/03/09 05:19:13;;;;;;;75.93;16.52;;;;;;;;;;5049284;28;20222;-71
2023/03/09 05:21:41;;;;;;;64.93;17.25;;;;;;;;;;5034278;28;20230;-71
2023/03/09 05:24:08;;;;;;;55.75;17.27;;;;;;;;;;5033778;28;20210;-70
2023/03/09 05:26:35;;;;;;;101.05;19.48;;;;;;;;;;5033467;28;20203;-70
2023/03/09 05:29:02;;;;;;;74.22;17.55;;;;;;;;;;5041412;28;20214;-70
2023/03/09 05:31:30;;;;;;;52.47;16.50;;;;;;;;;;5053634;28;20578;-71
2023/03/09 05:33:57;;;;;;;44.25;12.95;;;;;;;;;;5052287;28;20198;-71
2023/03/09 05:36:24;;;;;;;55.00;17.25;;;;;;;;;;5054012;28;20206;-71
2023/03/09 05:38:53;;;;;;;71.05;18.02;;;;;;;;;;5069341;22;20218;-73
2023/03/09 05:41:21;;;;;;;66.25;16.27;;;;;;;;;;5052331;28;20219;-72
2023/03/09 05:43:48;;;;;;;44.20;15.63;;;;;;;;;;5052456;28;20210;-73
2023/03/09 05:46:16;;;;;;;52.83;14.20;;;;;;;;;;5052093;28;20198;-73
2023/03/09 05:48:43;;;;;;;47.65;13.63;;;;;;;;;;5053907;28;20198;-73
2023/03/09 05:51:12;;;;;;;60.03;15.73;;;;;;;;;;5053663;28;20244;-73
2023/03/09 05:53:40;;;;;;;52.05;16.02;;;;;;;;;;5053735;28;20198;-72
2023/03/09 05:56:08;;;;;;;54.70;15.15;;;;;;;;;;5052208;28;20203;-73
2023/03/09 05:58:36;;;;;;;54.67;13.52;;;;;;;;;;5053348;28;20545;-72
2023/03/09 06:01:03;;;;;;;35.45;11.45;;;;;;;;;;5053516;28;20565;-73
2023/03/09 06:03:30;;;;;;;60.45;14.25;;;;;;;;;;5044714;28;20206;-72
2023/03/09 06:06:00;;;;;;;52.17;14.95;;;;;;;;;;5035095;28;20203;-72
2023/03/09 06:08:28;;;;;;;55.90;13.65;;;;;;;;;;5043801;28;20354;-73
2023/03/09 06:10:55;;;;;;;41.00;13.35;;;;;;;;;;5033513;28;20704;-73
2023/03/09 06:13:23;;;;;;;78.55;15.00;;;;;;;;;;5033126;28;20199;-73
2023/03/09 06:15:50;;;;;;;44.83;14.93;;;;;;;;;;5032769;28;20200;-73
2023/03/09 06:18:17;;;;;;;43.33;13.02;;;;;;;;;;5038567;28;20199;-73
2023/03/09 06:20:44;;;;;;;46.90;12.55;;;;;;;;;;5053327;28;20214;-72
2023/03/09 06:23:12;;;;;;;53.53;15.15;;;;;;;;;;5047820;28;20270;-72
2023/03/09 06:25:39;;;;;;;54.80;14.70;;;;;;;;;;5053031;28;20198;-73
2023/03/09 06:28:06;;;;;;;59.33;14.40;;;;;;;;;;5052797;28;20198;-73
2023/03/09 06:30:34;;;;;;;56.95;12.68;;;;;;;;;;5049006;28;20218;-72
2023/03/09 06:33:02;;;;;;;49.53;14.05;;;;;;;;;;5052364;28;20683;-72
2023/03/09 06:35:29;;;;;;;62.53;14.45;;;;;;;;;;5049873;28;20578;-72
2023/03/09 06:37:56;;;;;;;57.88;15.30;;;;;;;;;;5048466;28;20209;-74
2023/03/09 06:40:23;;;;;;;42.10;12.57;;;;;;;;;;5050633;28;20226;-73
2023/03/09 06:42:50;;;;;;;55.05;13.50;;;;;;;;;;5048377;28;20207;-74
2023/03/09 06:45:17;;;;;;;41.08;11.70;;;;;;;;;;5050233;28;20293;-73
2023/03/09 06:47:45;;;;;;;40.65;12.38;;;;;;;;;;5052564;28;20194;-73
2023/03/09 06:50:12;;;;;;;54.35;15.25;;;;;;;;;;5050607;28;20222;-73
2023/03/09 06:52:39;;;;;;;46.50;15.27;;;;;;;;;;5045136;28;20202;-73
2023/03/09 06:55:07;;;;;;;47.80;13.80;;;;;;;;;;5047364;28;20206;-74
2023/03/09 06:57:34;;;;;;;79.28;17.00;;;;;;;;;;5050755;28;20269;-74
2023/03/09 07:00:01;;;;;;;51.55;14.93;;;;;;;;;;5049665;28;20292;-73
2023/03/09 07:02:28;;;;;;;47.78;14.35;;;;;;;;;;5052429;28;20309;-74
2023/03/09 07:04:57;;;;;;;38.15;13.35;;;;;;;;;;5052498;28;20202;-74
2023/03/09 07:07:24;;;;;;;40.40;13.55;;;;;;;;;;5047456;28;20201;-74
2023/03/09 07:09:51;;;;;;;34.55;11.77;;;;;;;;;;5049003;28;20219;-74
2023/03/09 07:12:18;;;;;;;36.90;11.88;;;;;;;;;;5049970;28;20198;-74
2023/03/09 07:14:46;;;;;;;47.70;12.82;;;;;;;;;;5041994;28;20660;-73
2023/03/09 07:17:14;;;;;;;31.65;10.80;;;;;;;;;;5046354;28;20214;-74
2023/03/09 07:19:41;;;;;;;41.50;12.95;;;;;;;;;;5050435;28;20241;-74
2023/03/09 07:22:11;;;;;;;41.85;12.25;;;;;;;;;;5050518;28;20227;-75
2023/03/09 07:24:38;;;;;;;39.90;12.60;;;;;;;;;;5047364;28;20218;-75
2023/03/09 07:27:07;;;;;;;31.50;11.75;;;;;;;;;;5048956;28;20298;-74
2023/03/09 07:29:34;;;;;;;34.45;12.73;;;;;;;;;;5045412;28;20226;-79
2023/03/09 07:32:03;;;;;;;27.33;11.15;;;;;;;;;;5032581;28;20200;-76
2023/03/09 07:34:30;;;;;;;43.17;12.63;;;;;;;;;;5046306;28;20286;-75
2023/03/09 07:36:57;;;;;;;33.08;12.30;;;;;;;;;;5049754;28;20203;-77
2023/03/09 07:39:25;;;;;;;45.92;12.85;;;;;;;;;;5048752;28;20237;-76
2023/03/09 07:41:52;;;;;;;54.17;14.38;;;;;;;;;;5050701;28;20218;-76
2023/03/09 07:44:19;;;;;;;42.22;13.38;;;;;;;;;;5031330;28;20566;-77
2023/03/09 07:46:47;;;;;;;50.13;14.30;;;;;;;;;;5044378;28;20214;-76
2023/03/09 07:49:14;;;;;;;37.72;12.73;;;;;;;;;;5045253;28;20222;-76
2023/03/09 07:51:41;;;;;;;43.42;13.98;;;;;;;;;;5048957;28;20203;-77
2023/03/09 07:54:09;;;;;;;50.22;13.23;;;;;;;;;;5055761;28;20617;-76
2023/03/09 07:56:37;;;;;;;48.75;13.35;;;;;;;;;;5053858;28;20272;-76
2023/03/09 07:59:04;;;;;;;37.63;12.98;;;;;;;;;;5051059;28;20210;-76
2023/03/09 08:01:32;;;;;;;48.20;12.15;;;;;;;;;;5051175;28;20214;-77
2023/03/09 08:03:59;;;;;;;34.60;11.20;;;;;;;;;;5050731;28;20199;-76
2023/03/09 08:06:26;;;;;;;39.03;12.43;;;;;;;;;;5047875;28;20195;-76
2023/03/09 08:08:54;;;;;;;28.70;11.65;;;;;;;;;;5051218;28;20195;-74
2023/03/09 08:11:23;;;;;;;41.80;13.50;;;;;;;;;;5047489;28;20224;-73
2023/03/09 08:13:51;;;;;;;31.85;11.50;;;;;;;;;;5049450;28;20194;-73
2023/03/09 08:16:18;;;;;;;30.73;10.73;;;;;;;;;;5045055;28;20191;-73
2023/03/09 08:18:46;;;;;;;40.80;12.75;;;;;;;;;;5045258;28;20202;-73
2023/03/09 08:21:14;;;;;;;46.35;12.52;;;;;;;;;;5049823;28;20214;-73
2023/03/09 08:23:43;;;;;;;538.65;509.88;;;;;;;;;;5044828;28;20199;-73
2023/03/09 08:26:11;;;;;;;876.63;817.75;;;;;;;;;;5051152;28;20397;-73
2023/03/09 08:28:38;;;;;;;657.95;598.13;;;;;;;;;;5050965;28;20727;-73
2023/03/09 08:31:07;;;;;;;346.92;322.25;;;;;;;;;;5033953;28;20571;-73
2023/03/09 08:33:34;;;;;;;238.50;223.45;;;;;;;;;;5044479;28;20203;-73
2023/03/09 08:36:01;;;;;;;105.10;98.38;;;;;;;;;;5046875;28;20195;-73
2023/03/09 08:38:28;;;;;;;115.85;109.25;;;;;;;;;;5047622;28;20206;-73
2023/03/09 08:40:55;;;;;;;331.98;313.08;;;;;;;;;;5048059;28;20726;-73
2023/03/09 08:43:22;;;;;;;219.00;206.65;;;;;;;;;;5048880;28;20199;-73
2023/03/09 08:45:49;;;;;;;254.60;243.23;;;;;;;;;;5051034;28;20205;-73
2023/03/09 08:48:17;;;;;;;177.48;169.07;;;;;;;;;;5050879;28;20198;-73
2023/03/09 08:50:45;;;;;;;137.40;130.95;;;;;;;;;;5049332;28;20234;-73
2023/03/09 08:53:12;;;;;;;99.45;95.00;;;;;;;;;;5049473;28;20202;-74
2023/03/09 08:55:39;;;;;;;100.60;96.07;;;;;;;;;;5048101;28;20199;-73
2023/03/09 08:58:07;;;;;;;25.85;24.75;;;;;;;;;;5044516;28;20195;-73
2023/03/09 09:00:34;;;;;;;45.72;43.60;;;;;;;;;;5048045;28;20761;-74
2023/03/09 09:03:01;;;;;;;71.18;67.32;;;;;;;;;;5049987;28;20583;-74
2023/03/09 09:05:30;;;;;;;55.03;51.67;;;;;;;;;;5052497;28;20199;-73
2023/03/09 09:07:57;;;;;;;74.25;70.63;;;;;;;;;;5054225;28;20199;-73
2023/03/09 09:10:24;;;;;;;3.85;3.55;;;;;;;;;;5051044;28;20218;-73
2023/03/09 09:12:51;;;;;;;7.78;7.47;;;;;;;;;;5050231;28;20199;-74
2023/03/09 09:15:18;;;;;;;12.35;11.88;;;;;;;;;;5051905;28;20195;-75
2023/03/09 09:17:45;;;;;;;10.10;9.77;;;;;;;;;;5054113;28;20579;-75
2023/03/09 09:20:12;;;;;;;27.45;26.20;;;;;;;;;;5051904;28;20218;-79
2023/03/09 09:22:42;;;;;;;25.45;24.17;;;;;;;;;;5053826;28;20218;-79
2023/03/09 09:25:10;;;;;;;24.83;23.20;;;;;;;;;;5051369;28;20615;-77
2023/03/09 09:27:37;;;;;;;130.00;123.95;;;;;;;;;;5057597;28;20199;-77
2023/03/09 09:30:05;;;;;;;13.43;12.55;;;;;;;;;;5051107;28;20214;-76
2023/03/09 09:32:32;;;;;;;15.57;14.95;;;;;;;;;;5053615;28;20191;-76
2023/03/09 09:34:59;;;;;;;18.92;17.83;;;;;;;;;;5053430;28;20198;-76
2023/03/09 09:37:28;;;;;;;101.45;95.63;;;;;;;;;;5053056;28;20281;-76
2023/03/09 09:39:58;;;;;;;169.75;142.63;;;;;;;;;;5047988;28;20218;-77
2023/03/09 09:42:29;;;;;;;118.60;113.15;;;;;;;;;;5049335;28;20218;-77
2023/03/09 09:44:57;;;;;;;8.93;8.15;;;;;;;;;;5049006;28;20208;-78
2023/03/09 09:47:25;;;;;;;20.77;19.65;;;;;;;;;;5049275;28;20198;-76
2023/03/09 09:49:53;;;;;;;31.55;30.13;;;;;;;;;;5044628;28;20230;-83
2023/03/09 09:52:27;;;;;;;32.97;31.45;;;;;;;;;;5042546;28;20210;-92
2023/03/09 09:54:57;;;;;;;21.85;20.85;;;;;;;;;;5053179;28;20199;-89
2023/03/09 09:57:29;;;;;;;34.58;32.90;;;;;;;;;;5048878;28;20637;-85
2023/03/09 09:59:59;;;;;;;2.13;1.58;;;;;;;;;;5043955;28;20237;-93
2023/03/09 10:02:37;;;;;;;3.10;2.90;;;;;;;;;;5041065;28;20305;-89
2023/03/09 10:05:06;;;;;;;3.40;3.17;;;;;;;;;;5050513;28;20194;-90
2023/03/09 10:07:34;;;;;;;4.38;4.10;;;;;;;;;;5052077;28;20257;-86
2023/03/09 10:10:04;;;;;;;37.00;35.35;;;;;;;;;;5046701;28;20233;-80
2023/03/09 10:12:33;;;;;;;4.50;4.30;;;;;;;;;;5053593;28;20632;-90
2023/03/09 10:15:04;;;;;;;12.80;12.25;;;;;;;;;;5051205;28;20207;-81
2023/03/09 10:17:33;;;;;;;2.25;2.15;;;;;;;;;;5051642;28;20195;-88
2023/03/09 10:20:03;;;;;;;60.05;56.05;;;;;;;;;;5052174;28;20229;-90
2023/03/09 10:22:31;;;;;;;10.95;10.52;;;;;;;;;;5049710;28;20222;-89
2023/03/09 10:24:58;;;;;;;38.50;37.10;;;;;;;;;;5052245;28;20202;-87
2023/03/09 10:27:30;;;;;;;129.10;119.88;;;;;;;;;;5051215;28;20205;-92
2023/03/09 10:30:00;;;;;;;121.93;116.35;;;;;;;;;;5554817;22;20580;-76
2023/03/09 10:32:34;;;;;;;11.50;10.98;;;;;;;;;;5025680;28;20207;-77
2023/03/09 10:35:05;;;;;;;62.53;59.90;;;;;;;;;;5026204;28;20457;-91
2023/03/09 10:37:34;;;;;;;1.85;1.60;;;;;;;;;;5032460;28;20207;-83
2023/03/09 10:40:04;;;;;;;2.38;2.28;;;;;;;;;;5027680;28;20251;-76
2023/03/09 10:42:36;;;;;;;12.50;12.00;;;;;;;;;;5028002;28;20559;-79
2023/03/09 10:45:05;;;;;;;4.72;2.22;;;;;;;;;;5046611;22;20227;-77
2023/03/09 10:47:47;;;;;;;2.38;2.17;;;;;;;;;;5020057;28;20191;-79
2023/03/09 10:50:15;;;;;;;17.55;16.75;;;;;;;;;;5022730;28;20191;-78
2023/03/09 10:52:43;;;;;;;4.45;2.50;;;;;;;;;;5028672;28;20196;-77
2023/03/09 10:55:23;;;;;;;3.33;2.65;;;;;;;;;;5030045;28;20211;-77
2023/03/09 10:57:57;;;;;;;3.55;2.58;;;;;;;;;;5023490;28;20195;-81
2023/03/09 11:00:25;;;;;;;4.90;2.80;;;;;;;;;;5026396;28;20199;-77
2023/03/09 11:02:53;;;;;;;2.75;2.55;;;;;;;;;;5023635;28;20269;-77
2023/03/09 11:05:21;;;;;;;5.70;3.63;;;;;;;;;;5026833;28;20303;-77
2023/03/09 11:07:50;;;;;;;4.15;3.00;;;;;;;;;;5027729;28;20215;-76
2023/03/09 11:10:25;;;;;;;3.40;2.58;;;;;;;;;;5026706;28;20702;-79
2023/03/09 11:12:52;;;;;;;2.80;2.60;;;;;;;;;;5030632;28;20568;-81
2023/03/09 11:15:28;;;;;;;3.80;2.50;;;;;;;;;;5032105;28;20239;-76
2023/03/09 11:17:56;;;;;;;3.35;3.00;;;;;;;;;;5030069;28;20218;-76
2023/03/09 11:20:29;;;;;;;3.28;3.08;;;;;;;;;;5028836;28;20203;-76
2023/03/09 11:23:00;;;;;;;5.22;3.05;;;;;;;;;;5023897;28;20773;-76
2023/03/09 11:25:38;;;;;;;5.10;3.20;;;;;;;;;;5027293;28;20226;-76
2023/03/09 11:28:12;;;;;;;3.58;3.28;;;;;;;;;;5029010;28;20203;-76
2023/03/09 11:30:40;;;;;;;3.58;3.28;;;;;;;;;;5030708;28;20215;-76
2023/03/09 11:33:10;;;;;;;3.38;3.03;;;;;;;;;;5024039;28;20219;-77
2023/03/09 11:35:37;;;;;;;7.50;4.10;;;;;;;;;;5029805;28;20223;-76
2023/03/09 11:38:07;;;;;;;4.05;3.58;;;;;;;;;;5023785;28;20215;-76
2023/03/09 11:40:35;;;;;;;6.53;4.40;;;;;;;;;;5030180;28;20657;-76
2023/03/09 11:43:06;;;;;;;6.63;5.43;;;;;;;;;;5028906;28;20215;-78
2023/03/09 11:45:35;;;;;;;8.70;4.75;;;;;;;;;;5030573;28;20230;-77
2023/03/09 11:48:05;;;;;;;4.07;3.78;;;;;;;;;;5031254;28;20203;-77
2023/03/09 11:50:35;;;;;;;6.65;4.43;;;;;;;;;;5029772;28;20210;-76
2023/03/09 11:53:05;;;;;;;11.30;10.30;;;;;;;;;;5027529;28;20249;-76
2023/03/09 11:55:34;;;;;;;11.90;11.00;;;;;;;;;;5022539;28;20215;-77
2023/03/09 11:58:04;;;;;;;8.88;6.45;;;;;;;;;;5030513;28;20517;-77
2023/03/09 12:00:33;;;;;;;4.95;4.50;;;;;;;;;;5020534;28;20191;-75
2023/03/09 12:03:02;;;;;;;6.10;4.25;;;;;;;;;;5026975;28;20226;-74
2023/03/09 12:05:35;;;;;;;6.85;5.35;;;;;;;;;;5019977;28;20218;-75
2023/03/09 12:08:04;;;;;;;4.75;4.30;;;;;;;;;;5027754;28;20578;-75
2023/03/09 12:10:33;;;;;;;7.70;4.70;;;;;;;;;;5025958;28;20199;-75
2023/03/09 12:13:03;;;;;;;5.72;4.90;;;;;;;;;;5027922;28;20553;-76
2023/03/09 12:15:33;;;;;;;4.45;4.03;;;;;;;;;;5029878;28;20774;-75
2023/03/09 12:18:01;;;;;;;6.07;4.70;;;;;;;;;;5025857;28;20284;-77
2023/03/09 12:20:32;;;;;;;5.57;3.33;;;;;;;;;;5026690;28;20206;-75
2023/03/09 12:22:59;;;;;;;0.03;0.03;;;;;;;;;;5030078;28;20219;-75
2023/03/09 12:25:27;;;;;;;0.05;0.05;;;;;;;;;;5026457;28;20234;-76
2023/03/09 12:27:56;;;;;;;0.00;0.00;;;;;;;;;;5025057;28;20196;-74
2023/03/09 12:30:27;;;;;;;0.00;0.00;;;;;;;;;;5030290;28;20644;-76
2023/03/09 12:32:56;;;;;;;0.00;0.00;;;;;;;;;;5025498;28;20203;-76
2023/03/09 12:35:41;;;;;;;0.00;0.00;;;;;;;;;;5028776;28;20223;-75
2023/03/09 12:38:21;;;;;;;0.00;0.00;;;;;;;;;;5028228;28;20196;-75
2023/03/09 12:40:48;;;;;;;0.00;0.00;;;;;;;;;;5029531;28;20199;-75
2023/03/09 12:43:34;;;;;;;0.00;0.00;;;;;;;;;;5030606;28;20582;-76
2023/03/09 12:46:27;;;;;;;0.00;0.00;;;;;;;;;;5032765;28;20227;-76
2023/03/09 12:48:55;;;;;;;0.00;0.00;;;;;;;;;;5029776;28;20541;-75
2023/03/09 12:51:32;;;;;;;0.00;0.00;;;;;;;;;;5030362;28;20203;-75
2023/03/09 12:54:01;;;;;;;0.00;0.00;;;;;;;;;;5032345;28;20712;-75
2023/03/09 12:56:28;;;;;;;0.00;0.00;;;;;;;;;;5028634;28;20509;-75
2023/03/09 12:58:57;;;;;;;0.00;0.00;;;;;;;;;;5027604;28;20273;-77
2023/03/09 13:01:32;;;;;;;0.00;0.00;;;;;;;;;;5027511;28;20198;-75
2023/03/09 13:04:15;;;;;;;0.00;0.00;;;;;;;;;;5021383;28;20250;-78
2023/03/09 13:06:44;;;;;;;0.00;0.00;;;;;;;;;;5029489;28;20587;-76
2023/03/09 13:09:19;;;;;;;4.40;4.30;;;;;;;;;;5031931;28;20547;-75
2023/03/09 13:11:47;;;;;;;0.00;0.00;;;;;;;;;;5031015;28;20205;-75
2023/03/09 13:14:15;;;;;;;0.10;0.10;;;;;;;;;;5030185;28;20203;-75
2023/03/09 13:17:06;;;;;;;0.20;0.20;;;;;;;;;;5033873;28;20250;-75
2023/03/09 13:19:54;;;;;;;0.00;0.00;;;;;;;;;;5029883;28;20210;-75
2023/03/09 13:22:41;;;;;;;0.10;0.10;;;;;;;;;;5013736;28;20622;-75
2023/03/09 13:25:21;;;;;;;6.25;6.15;;;;;;;;;;5031488;28;20215;-75
2023/03/09 13:27:50;;;;;;;9.63;9.38;;;;;;;;;;5032564;28;20578;-75
2023/03/09 13:30:20;;;;;;;46.13;44.42;;;;;;;;;;5029187;28;20219;-75
2023/03/09 13:32:51;;;;;;;22.25;21.55;;;;;;;;;;5033369;28;20245;-75
2023/03/09 13:35:21;;;;;;;31.80;30.60;;;;;;;;;;5025461;28;20215;-75
2023/03/09 13:37:51;;;;;;;13.77;13.37;;;;;;;;;;5033901;28;20863;-75
2023/03/09 13:40:27;;;;;;;22.40;21.63;;;;;;;;;;5033132;28;20488;-75
2023/03/09 13:42:55;;;;;;;20.00;19.10;;;;;;;;;;5030993;28;20634;-75
2023/03/09 13:45:23;;;;;;;0.30;0.30;;;;;;;;;;5029364;28;20231;-77
2023/03/09 13:47:52;;;;;;;8.63;8.43;;;;;;;;;;5031373;28;20199;-75
2023/03/09 13:50:20;;;;;;;1.27;1.27;;;;;;;;;;5032830;28;20435;-75
2023/03/09 13:52:59;;;;;;;0.10;0.10;;;;;;;;;;5025207;28;20202;-75
2023/03/09 13:55:28;;;;;;;1.45;1.45;;;;;;;;;;5032111;28;20218;-75
2023/03/09 13:57:55;;;;;;;0.10;0.10;;;;;;;;;;5030069;28;20574;-74
2023/03/09 14:00:25;;;;;;;0.10;0.10;;;;;;;;;;5030634;28;20214;-74
2023/03/09 14:02:53;;;;;;;0.75;0.75;;;;;;;;;;5028827;28;20230;-75
2023/03/09 14:05:21;;;;;;;0.10;0.10;;;;;;;;;;5032271;28;20212;-74
2023/03/09 14:07:51;;;;;;;0.30;0.30;;;;;;;;;;5026822;28;20211;-75
2023/03/09 14:10:21;;;;;;;0.50;0.50;;;;;;;;;;5028512;28;20458;-75
2023/03/09 14:12:52;;;;;;;0.10;0.10;;;;;;;;;;5021596;28;20447;-75
2023/03/09 14:15:20;;;;;;;0.17;0.17;;;;;;;;;;5031879;28;20250;-74
2023/03/09 14:17:49;;;;;;;0.30;0.30;;;;;;;;;;5031370;28;20461;-75
2023/03/09 14:20:18;;;;;;;2.03;2.03;;;;;;;;;;5032623;28;20438;-74
2023/03/09 14:22:45;;;;;;;0.20;0.20;;;;;;;;;;5030093;28;20482;-75
2023/03/09 14:25:22;;;;;;;0.90;0.90;;;;;;;;;;5032458;28;20503;-75
2023/03/09 14:27:51;;;;;;;0.00;0.00;;;;;;;;;;5031016;28;20495;-75
2023/03/09 14:30:35;;;;;;;0.00;0.00;;;;;;;;;;5031385;28;20830;-76
2023/03/09 14:33:02;;;;;;;0.53;0.53;;;;;;;;;;5030219;28;20430;-76